createdAt,value
2022-10-06T00:01:47.985Z,26
2022-10-06T00:21:48.851Z,0
2022-10-06T00:31:49.172Z,0
2022-10-06T00:41:49.789Z,0
2022-10-06T00:51:50.579Z,0
2022-10-06T01:01:50.957Z,0
2022-10-06T01:21:52.061Z,0
2022-10-06T01:41:53.197Z,0
2022-10-06T01:51:54.071Z,19
2022-10-06T02:01:54.272Z,0
2022-10-06T02:21:55.480Z,0
2022-10-06T02:31:56.038Z,0
2022-10-06T02:41:57.020Z,0
2022-10-06T02:51:57.697Z,0
2022-10-06T03:01:58.387Z,0
2022-10-06T03:11:58.798Z,0
2022-10-06T03:21:59.197Z,0
2022-10-06T03:32:00.212Z,0
2022-10-06T03:42:00.841Z,0
2022-10-06T03:52:01.533Z,0
2022-10-06T04:02:01.597Z,0
2022-10-06T04:32:02.485Z,0
2022-10-06T04:42:02.554Z,0
2022-10-06T04:52:02.995Z,0
2022-10-06T05:02:03.311Z,100
2022-10-06T05:12:03.713Z,80
2022-10-06T05:22:04.636Z,78
2022-10-06T05:32:05.117Z,0
2022-10-06T05:42:05.775Z,100
2022-10-06T05:52:06.691Z,0
2022-10-06T06:02:07.106Z,0
2022-10-06T06:12:07.286Z,0
2022-10-06T06:22:08.037Z,0
2022-10-06T06:32:08.583Z,28
2022-10-06T06:42:08.980Z,100
2022-10-06T06:52:09.317Z,16
2022-10-06T07:02:09.881Z,0
2022-10-06T07:12:10.162Z,0
2022-10-06T07:22:10.653Z,0
2022-10-06T07:32:11.686Z,0
2022-10-06T07:42:12.335Z,0
2022-10-06T07:52:13.321Z,0
2022-10-06T08:02:13.460Z,0
2022-10-06T08:12:13.523Z,2
2022-10-06T08:22:14.483Z,15
2022-10-06T08:32:14.994Z,25
2022-10-06T08:42:15.380Z,23
2022-10-06T08:52:16.397Z,34
2022-10-06T09:02:17.305Z,41
2022-10-06T09:12:17.608Z,59
2022-10-06T10:02:20.415Z,87
2022-10-06T10:12:21.128Z,92
2022-10-06T10:22:21.374Z,100
2022-10-06T10:32:22.179Z,100
2022-10-06T10:42:22.534Z,100
2022-10-06T10:52:23.307Z,100
2022-10-06T11:02:23.608Z,100
2022-10-06T11:32:24.991Z,100
2022-10-06T11:52:26.181Z,100
2022-10-06T12:22:27.029Z,100
2022-10-06T12:32:27.915Z,100
2022-10-06T12:42:28.143Z,100
2022-10-06T12:52:28.585Z,100
2022-10-06T13:02:29.488Z,100
2022-10-06T13:12:29.846Z,100
2022-10-06T13:22:30.363Z,100
2022-10-06T13:32:30.504Z,100
2022-10-06T13:42:30.562Z,100
2022-10-06T13:52:31.237Z,100
2022-10-06T14:02:31.654Z,100
2022-10-06T14:12:32.147Z,100
2022-10-06T14:22:33.096Z,100
2022-10-06T14:32:33.983Z,100
2022-10-06T14:42:34.916Z,100
2022-10-06T14:52:35.161Z,100
2022-10-06T15:02:35.901Z,100
2022-10-06T15:02:57.780Z,100
2022-10-06T15:12:41.702Z,100
2022-10-06T15:22:41.812Z,100
2022-10-06T15:32:41.984Z,100
2022-10-06T15:42:42.588Z,100
2022-10-06T15:52:43.446Z,100
2022-10-06T16:02:43.740Z,100
2022-10-06T16:12:43.954Z,100
2022-10-06T16:22:44.706Z,100
2022-10-06T16:32:44.864Z,100
2022-10-06T16:42:45.361Z,100
2022-10-06T16:52:45.435Z,100
2022-10-06T17:02:45.829Z,100
2022-10-06T17:12:46.197Z,100
2022-10-06T17:22:46.241Z,100
2022-10-06T17:32:46.371Z,100
2022-10-06T17:42:47.264Z,100
2022-10-06T17:52:47.746Z,100
2022-10-06T18:12:48.323Z,87
2022-10-06T18:22:49.269Z,76
2022-10-06T18:42:50.715Z,56
2022-10-06T18:52:51.234Z,47
2022-10-06T19:02:51.406Z,47
2022-10-06T19:12:52.272Z,49
2022-10-06T19:22:52.795Z,36
2022-10-06T19:32:53.303Z,30
2022-10-06T19:42:54.005Z,18
2022-10-06T19:52:54.935Z,3
2022-10-06T20:02:55.626Z,0
2022-10-06T20:22:57.012Z,0
2022-10-06T20:32:57.081Z,0
2022-10-06T20:42:57.265Z,0
2022-10-06T20:52:57.880Z,0
2022-10-06T21:02:58.862Z,0
2022-10-06T21:12:58.859Z,0
2022-10-06T21:22:59.130Z,0
2022-10-06T21:32:59.469Z,0
2022-10-06T21:42:59.910Z,0
2022-10-06T21:53:00.196Z,0
2022-10-06T22:03:00.706Z,0
2022-10-06T22:13:01.601Z,0
2022-10-06T22:23:04.854Z,0
2022-10-06T22:33:03.150Z,0
2022-10-06T22:43:04.001Z,0
2022-10-06T22:53:04.653Z,0
2022-10-06T23:03:04.895Z,0
2022-10-06T23:13:04.955Z,0
2022-10-06T23:23:05.181Z,0
2022-10-06T23:33:05.317Z,0
2022-10-06T23:53:06.462Z,0
